sensor_id;sensor_type;location;lat;lon;timestamp;P1;durP1;ratioP1;P2;durP2;ratioP2
75246;SDS011;63844;50.042;19.224;2023-02-28T00:00:17;20.40;;;8.40;;
75246;SDS011;63844;50.042;19.224;2023-02-28T00:03:05;21.30;;;8.50;;
75246;SDS011;63844;50.042;19.224;2023-02-28T00:05:31;22.20;;;9.30;;
75246;SDS011;63844;50.042;19.224;2023-02-28T00:07:58;24.50;;;10.10;;
75246;SDS011;63844;50.042;19.224;2023-02-28T00:10:26;23.90;;;9.10;;
75246;SDS011;63844;50.042;19.224;2023-02-28T00:12:55;22.90;;;8.80;;
75246;SDS011;63844;50.042;19.224;2023-02-28T00:15:28;19.30;;;6.60;;
75246;SDS011;63844;50.042;19.224;2023-02-28T00:17:54;21.00;;;7.80;;
75246;SDS011;63844;50.042;19.224;2023-02-28T00:20:21;24.10;;;10.10;;
75246;SDS011;63844;50.042;19.224;2023-02-28T00:22:48;16.20;;;7.20;;
75246;SDS011;63844;50.042;19.224;2023-02-28T00:25:18;22.00;;;9.70;;
75246;SDS011;63844;50.042;19.224;2023-02-28T00:27:47;22.40;;;8.40;;
75246;SDS011;63844;50.042;19.224;2023-02-28T00:30:16;21.10;;;9.20;;
75246;SDS011;63844;50.042;19.224;2023-02-28T00:32:44;19.10;;;8.70;;
75246;SDS011;63844;50.042;19.224;2023-02-28T00:35:12;20.50;;;8.00;;
75246;SDS011;63844;50.042;19.224;2023-02-28T00:37:39;18.30;;;7.50;;
75246;SDS011;63844;50.042;19.224;2023-02-28T00:40:06;20.90;;;8.00;;
75246;SDS011;63844;50.042;19.224;2023-02-28T00:42:34;19.40;;;7.40;;
75246;SDS011;63844;50.042;19.224;2023-02-28T00:45:02;17.10;;;6.60;;
75246;SDS011;63844;50.042;19.224;2023-02-28T00:47:30;12.80;;;6.30;;
75246;SDS011;63844;50.042;19.224;2023-02-28T00:49:58;19.60;;;7.80;;
75246;SDS011;63844;50.042;19.224;2023-02-28T00:52:25;11.90;;;5.00;;
75246;SDS011;63844;50.042;19.224;2023-02-28T00:54:52;13.50;;;5.90;;
75246;SDS011;63844;50.042;19.224;2023-02-28T00:57:18;12.40;;;4.80;;
75246;SDS011;63844;50.042;19.224;2023-02-28T00:59:45;11.80;;;4.50;;
75246;SDS011;63844;50.042;19.224;2023-02-28T01:02:11;7.30;;;3.40;;
75246;SDS011;63844;50.042;19.224;2023-02-28T01:04:38;8.60;;;3.90;;
75246;SDS011;63844;50.042;19.224;2023-02-28T01:07:04;11.80;;;3.90;;
75246;SDS011;63844;50.042;19.224;2023-02-28T01:09:31;14.10;;;4.70;;
75246;SDS011;63844;50.042;19.224;2023-02-28T01:11:58;12.60;;;4.90;;
75246;SDS011;63844;50.042;19.224;2023-02-28T01:14:24;13.00;;;5.00;;
75246;SDS011;63844;50.042;19.224;2023-02-28T01:16:51;11.80;;;5.10;;
75246;SDS011;63844;50.042;19.224;2023-02-28T01:19:18;14.60;;;5.00;;
75246;SDS011;63844;50.042;19.224;2023-02-28T01:21:44;12.60;;;4.30;;
75246;SDS011;63844;50.042;19.224;2023-02-28T01:24:11;9.30;;;4.20;;
75246;SDS011;63844;50.042;19.224;2023-02-28T01:26:37;12.20;;;4.80;;
75246;SDS011;63844;50.042;19.224;2023-02-28T01:29:04;12.90;;;5.40;;
75246;SDS011;63844;50.042;19.224;2023-02-28T01:31:30;10.40;;;3.90;;
75246;SDS011;63844;50.042;19.224;2023-02-28T01:33:57;12.40;;;5.30;;
75246;SDS011;63844;50.042;19.224;2023-02-28T01:36:24;17.50;;;5.60;;
75246;SDS011;63844;50.042;19.224;2023-02-28T01:38:51;14.90;;;6.80;;
75246;SDS011;63844;50.042;19.224;2023-02-28T01:41:22;17.70;;;6.30;;
75246;SDS011;63844;50.042;19.224;2023-02-28T01:43:56;14.80;;;6.80;;
75246;SDS011;63844;50.042;19.224;2023-02-28T01:46:32;15.50;;;7.40;;
75246;SDS011;63844;50.042;19.224;2023-02-28T01:51:44;15.50;;;5.90;;
75246;SDS011;63844;50.042;19.224;2023-02-28T01:54:18;15.20;;;6.60;;
75246;SDS011;63844;50.042;19.224;2023-02-28T01:56:58;10.70;;;5.20;;
75246;SDS011;63844;50.042;19.224;2023-02-28T01:59:33;13.50;;;6.30;;
75246;SDS011;63844;50.042;19.224;2023-02-28T02:02:04;16.50;;;7.40;;
75246;SDS011;63844;50.042;19.224;2023-02-28T02:04:32;18.10;;;6.70;;
75246;SDS011;63844;50.042;19.224;2023-02-28T02:07:04;18.20;;;6.60;;
75246;SDS011;63844;50.042;19.224;2023-02-28T02:09:31;16.90;;;6.70;;
75246;SDS011;63844;50.042;19.224;2023-02-28T02:11:58;13.50;;;6.50;;
75246;SDS011;63844;50.042;19.224;2023-02-28T02:17:06;13.60;;;6.40;;
75246;SDS011;63844;50.042;19.224;2023-02-28T02:19:52;16.60;;;6.90;;
75246;SDS011;63844;50.042;19.224;2023-02-28T02:25:08;13.20;;;5.60;;
75246;SDS011;63844;50.042;19.224;2023-02-28T02:27:59;15.70;;;6.90;;
75246;SDS011;63844;50.042;19.224;2023-02-28T02:30:53;17.00;;;6.70;;
75246;SDS011;63844;50.042;19.224;2023-02-28T02:38:43;12.20;;;5.40;;
75246;SDS011;63844;50.042;19.224;2023-02-28T02:46:43;14.80;;;6.70;;
75246;SDS011;63844;50.042;19.224;2023-02-28T02:49:15;12.70;;;5.20;;
75246;SDS011;63844;50.042;19.224;2023-02-28T02:51:47;12.20;;;6.30;;
75246;SDS011;63844;50.042;19.224;2023-02-28T02:54:26;12.50;;;6.10;;
75246;SDS011;63844;50.042;19.224;2023-02-28T02:56:58;12.60;;;6.40;;
75246;SDS011;63844;50.042;19.224;2023-02-28T02:59:29;16.80;;;7.00;;
75246;SDS011;63844;50.042;19.224;2023-02-28T03:01:57;14.90;;;5.30;;
75246;SDS011;63844;50.042;19.224;2023-02-28T03:04:28;15.50;;;6.80;;
75246;SDS011;63844;50.042;19.224;2023-02-28T03:07:00;14.40;;;6.50;;
75246;SDS011;63844;50.042;19.224;2023-02-28T03:09:27;14.30;;;6.30;;
75246;SDS011;63844;50.042;19.224;2023-02-28T03:11:54;13.70;;;6.60;;
75246;SDS011;63844;50.042;19.224;2023-02-28T03:27:30;15.10;;;7.40;;
75246;SDS011;63844;50.042;19.224;2023-02-28T03:30:22;20.70;;;8.60;;
75246;SDS011;63844;50.042;19.224;2023-02-28T03:35:27;20.80;;;8.50;;
75246;SDS011;63844;50.042;19.224;2023-02-28T03:38:00;18.50;;;8.30;;
75246;SDS011;63844;50.042;19.224;2023-02-28T03:40:33;17.40;;;8.50;;
75246;SDS011;63844;50.042;19.224;2023-02-28T03:43:04;20.00;;;9.20;;
75246;SDS011;63844;50.042;19.224;2023-02-28T03:45:37;16.60;;;7.20;;
75246;SDS011;63844;50.042;19.224;2023-02-28T03:48:08;14.30;;;6.40;;
75246;SDS011;63844;50.042;19.224;2023-02-28T03:50:46;20.60;;;9.00;;
75246;SDS011;63844;50.042;19.224;2023-02-28T03:53:16;19.30;;;8.10;;
75246;SDS011;63844;50.042;19.224;2023-02-28T03:55:49;17.70;;;7.40;;
75246;SDS011;63844;50.042;19.224;2023-02-28T03:58:41;18.00;;;7.80;;
75246;SDS011;63844;50.042;19.224;2023-02-28T04:01:57;15.90;;;6.80;;
75246;SDS011;63844;50.042;19.224;2023-02-28T04:04:07;13.10;;;6.50;;
75246;SDS011;63844;50.042;19.224;2023-02-28T04:06:35;13.70;;;6.70;;
75246;SDS011;63844;50.042;19.224;2023-02-28T04:09:03;18.00;;;8.90;;
75246;SDS011;63844;50.042;19.224;2023-02-28T04:14:08;19.20;;;8.70;;
75246;SDS011;63844;50.042;19.224;2023-02-28T04:16:37;22.80;;;9.30;;
75246;SDS011;63844;50.042;19.224;2023-02-28T04:19:06;24.00;;;9.50;;
75246;SDS011;63844;50.042;19.224;2023-02-28T04:21:35;16.50;;;7.30;;
75246;SDS011;63844;50.042;19.224;2023-02-28T04:24:04;15.10;;;6.90;;
75246;SDS011;63844;50.042;19.224;2023-02-28T04:26:35;22.40;;;10.80;;
75246;SDS011;63844;50.042;19.224;2023-02-28T04:29:03;18.50;;;7.80;;
75246;SDS011;63844;50.042;19.224;2023-02-28T04:31:31;18.90;;;8.70;;
75246;SDS011;63844;50.042;19.224;2023-02-28T04:33:58;20.50;;;8.40;;
75246;SDS011;63844;50.042;19.224;2023-02-28T04:36:24;18.00;;;8.30;;
75246;SDS011;63844;50.042;19.224;2023-02-28T04:38:51;18.00;;;8.80;;
75246;SDS011;63844;50.042;19.224;2023-02-28T04:41:19;24.20;;;8.80;;
75246;SDS011;63844;50.042;19.224;2023-02-28T04:43:46;19.30;;;8.50;;
75246;SDS011;63844;50.042;19.224;2023-02-28T04:46:12;16.30;;;7.20;;
75246;SDS011;63844;50.042;19.224;2023-02-28T04:48:39;21.00;;;10.20;;
75246;SDS011;63844;50.042;19.224;2023-02-28T04:51:07;27.90;;;11.60;;
75246;SDS011;63844;50.042;19.224;2023-02-28T04:53:37;21.20;;;9.90;;
75246;SDS011;63844;50.042;19.224;2023-02-28T04:56:06;15.70;;;7.10;;
75246;SDS011;63844;50.042;19.224;2023-02-28T04:58:33;23.70;;;10.10;;
75246;SDS011;63844;50.042;19.224;2023-02-28T05:01:01;27.10;;;11.30;;
75246;SDS011;63844;50.042;19.224;2023-02-28T05:03:39;29.20;;;12.00;;
75246;SDS011;63844;50.042;19.224;2023-02-28T05:06:09;27.40;;;11.30;;
75246;SDS011;63844;50.042;19.224;2023-02-28T05:08:37;17.80;;;8.20;;
75246;SDS011;63844;50.042;19.224;2023-02-28T05:11:05;19.70;;;8.60;;
75246;SDS011;63844;50.042;19.224;2023-02-28T05:13:34;25.10;;;10.80;;
75246;SDS011;63844;50.042;19.224;2023-02-28T05:16:01;23.10;;;10.00;;
75246;SDS011;63844;50.042;19.224;2023-02-28T05:18:28;22.70;;;10.50;;
75246;SDS011;63844;50.042;19.224;2023-02-28T05:20:54;25.50;;;10.70;;
75246;SDS011;63844;50.042;19.224;2023-02-28T05:23:21;23.70;;;10.30;;
75246;SDS011;63844;50.042;19.224;2023-02-28T05:25:48;23.20;;;10.70;;
75246;SDS011;63844;50.042;19.224;2023-02-28T05:28:15;30.70;;;12.40;;
75246;SDS011;63844;50.042;19.224;2023-02-28T05:30:42;26.90;;;10.40;;
75246;SDS011;63844;50.042;19.224;2023-02-28T05:33:10;27.20;;;10.70;;
75246;SDS011;63844;50.042;19.224;2023-02-28T05:35:40;23.10;;;9.80;;
75246;SDS011;63844;50.042;19.224;2023-02-28T05:38:07;30.30;;;12.50;;
75246;SDS011;63844;50.042;19.224;2023-02-28T05:40:34;31.50;;;13.00;;
75246;SDS011;63844;50.042;19.224;2023-02-28T05:45:27;16.50;;;7.00;;
75246;SDS011;63844;50.042;19.224;2023-02-28T05:47:54;19.00;;;8.60;;
75246;SDS011;63844;50.042;19.224;2023-02-28T05:50:21;23.00;;;9.40;;
75246;SDS011;63844;50.042;19.224;2023-02-28T05:52:51;25.40;;;11.90;;
75246;SDS011;63844;50.042;19.224;2023-02-28T05:55:18;23.90;;;10.60;;
75246;SDS011;63844;50.042;19.224;2023-02-28T05:57:45;31.30;;;13.40;;
75246;SDS011;63844;50.042;19.224;2023-02-28T06:00:12;28.10;;;11.80;;
75246;SDS011;63844;50.042;19.224;2023-02-28T06:02:41;22.10;;;10.40;;
75246;SDS011;63844;50.042;19.224;2023-02-28T06:05:10;26.70;;;11.00;;
75246;SDS011;63844;50.042;19.224;2023-02-28T06:07:40;29.90;;;12.60;;
75246;SDS011;63844;50.042;19.224;2023-02-28T06:10:07;26.80;;;10.50;;
75246;SDS011;63844;50.042;19.224;2023-02-28T06:12:34;29.80;;;12.30;;
75246;SDS011;63844;50.042;19.224;2023-02-28T06:15:00;31.50;;;12.20;;
75246;SDS011;63844;50.042;19.224;2023-02-28T06:17:27;23.70;;;10.70;;
75246;SDS011;63844;50.042;19.224;2023-02-28T06:19:54;25.60;;;10.40;;
75246;SDS011;63844;50.042;19.224;2023-02-28T06:22:21;24.50;;;10.30;;
75246;SDS011;63844;50.042;19.224;2023-02-28T06:24:47;22.70;;;10.10;;
75246;SDS011;63844;50.042;19.224;2023-02-28T06:27:14;25.30;;;11.80;;
75246;SDS011;63844;50.042;19.224;2023-02-28T06:29:40;24.50;;;11.30;;
75246;SDS011;63844;50.042;19.224;2023-02-28T06:32:07;29.10;;;12.90;;
75246;SDS011;63844;50.042;19.224;2023-02-28T06:34:33;37.30;;;14.20;;
75246;SDS011;63844;50.042;19.224;2023-02-28T06:37:00;25.00;;;9.30;;
75246;SDS011;63844;50.042;19.224;2023-02-28T06:39:29;25.30;;;11.70;;
75246;SDS011;63844;50.042;19.224;2023-02-28T06:41:56;31.10;;;11.90;;
75246;SDS011;63844;50.042;19.224;2023-02-28T06:44:23;30.20;;;12.40;;
75246;SDS011;63844;50.042;19.224;2023-02-28T06:46:50;31.00;;;12.40;;
75246;SDS011;63844;50.042;19.224;2023-02-28T06:49:17;31.70;;;13.80;;
75246;SDS011;63844;50.042;19.224;2023-02-28T06:51:44;29.10;;;12.20;;
75246;SDS011;63844;50.042;19.224;2023-02-28T06:54:11;30.30;;;13.20;;
75246;SDS011;63844;50.042;19.224;2023-02-28T06:59:05;26.70;;;11.30;;
75246;SDS011;63844;50.042;19.224;2023-02-28T07:01:32;32.20;;;12.30;;
75246;SDS011;63844;50.042;19.224;2023-02-28T07:03:59;21.60;;;8.60;;
75246;SDS011;63844;50.042;19.224;2023-02-28T07:06:27;30.10;;;12.30;;
75246;SDS011;63844;50.042;19.224;2023-02-28T07:08:54;18.90;;;8.10;;
75246;SDS011;63844;50.042;19.224;2023-02-28T07:11:22;21.30;;;10.10;;
75246;SDS011;63844;50.042;19.224;2023-02-28T07:13:52;22.60;;;8.10;;
75246;SDS011;63844;50.042;19.224;2023-02-28T07:16:19;17.40;;;7.60;;
75246;SDS011;63844;50.042;19.224;2023-02-28T07:18:46;24.80;;;10.60;;
75246;SDS011;63844;50.042;19.224;2023-02-28T07:21:13;27.20;;;11.00;;
75246;SDS011;63844;50.042;19.224;2023-02-28T07:23:40;24.50;;;10.80;;
75246;SDS011;63844;50.042;19.224;2023-02-28T07:26:12;24.90;;;8.10;;
75246;SDS011;63844;50.042;19.224;2023-02-28T07:28:41;17.00;;;6.40;;
75246;SDS011;63844;50.042;19.224;2023-02-28T07:31:08;25.10;;;10.50;;
75246;SDS011;63844;50.042;19.224;2023-02-28T07:33:37;25.80;;;11.30;;
75246;SDS011;63844;50.042;19.224;2023-02-28T07:36:06;18.70;;;8.10;;
75246;SDS011;63844;50.042;19.224;2023-02-28T07:38:35;24.50;;;10.20;;
75246;SDS011;63844;50.042;19.224;2023-02-28T07:41:02;19.00;;;8.20;;
75246;SDS011;63844;50.042;19.224;2023-02-28T07:43:32;22.80;;;10.20;;
75246;SDS011;63844;50.042;19.224;2023-02-28T07:46:03;24.40;;;11.70;;
75246;SDS011;63844;50.042;19.224;2023-02-28T07:48:31;24.50;;;11.30;;
75246;SDS011;63844;50.042;19.224;2023-02-28T07:50:58;16.00;;;7.70;;
75246;SDS011;63844;50.042;19.224;2023-02-28T07:53:26;23.20;;;9.60;;
75246;SDS011;63844;50.042;19.224;2023-02-28T07:55:56;23.50;;;10.10;;
75246;SDS011;63844;50.042;19.224;2023-02-28T07:58:25;23.70;;;10.20;;
75246;SDS011;63844;50.042;19.224;2023-02-28T08:00:52;19.60;;;8.70;;
75246;SDS011;63844;50.042;19.224;2023-02-28T08:03:20;16.50;;;7.40;;
75246;SDS011;63844;50.042;19.224;2023-02-28T08:05:48;21.60;;;10.00;;
75246;SDS011;63844;50.042;19.224;2023-02-28T08:08:16;17.20;;;7.70;;
75246;SDS011;63844;50.042;19.224;2023-02-28T08:10:43;21.30;;;10.30;;
75246;SDS011;63844;50.042;19.224;2023-02-28T08:13:10;24.50;;;10.40;;
75246;SDS011;63844;50.042;19.224;2023-02-28T08:15:36;17.60;;;6.10;;
75246;SDS011;63844;50.042;19.224;2023-02-28T08:18:03;18.70;;;7.30;;
75246;SDS011;63844;50.042;19.224;2023-02-28T08:20:29;19.40;;;8.40;;
75246;SDS011;63844;50.042;19.224;2023-02-28T08:22:57;32.20;;;11.70;;
75246;SDS011;63844;50.042;19.224;2023-02-28T08:25:23;32.90;;;12.60;;
75246;SDS011;63844;50.042;19.224;2023-02-28T08:27:50;18.00;;;7.30;;
75246;SDS011;63844;50.042;19.224;2023-02-28T08:30:18;16.50;;;7.50;;
75246;SDS011;63844;50.042;19.224;2023-02-28T08:32:45;24.70;;;9.90;;
75246;SDS011;63844;50.042;19.224;2023-02-28T08:35:11;48.80;;;15.10;;
75246;SDS011;63844;50.042;19.224;2023-02-28T08:37:38;38.70;;;12.70;;
75246;SDS011;63844;50.042;19.224;2023-02-28T08:40:05;27.20;;;9.80;;
75246;SDS011;63844;50.042;19.224;2023-02-28T08:42:32;17.10;;;7.20;;
75246;SDS011;63844;50.042;19.224;2023-02-28T08:44:59;19.80;;;8.20;;
75246;SDS011;63844;50.042;19.224;2023-02-28T08:47:25;39.60;;;12.20;;
75246;SDS011;63844;50.042;19.224;2023-02-28T08:49:52;27.90;;;10.20;;
75246;SDS011;63844;50.042;19.224;2023-02-28T08:52:18;14.50;;;6.40;;
75246;SDS011;63844;50.042;19.224;2023-02-28T08:54:46;14.90;;;6.60;;
75246;SDS011;63844;50.042;19.224;2023-02-28T08:57:13;12.60;;;5.50;;
75246;SDS011;63844;50.042;19.224;2023-02-28T08:59:39;14.30;;;6.90;;
75246;SDS011;63844;50.042;19.224;2023-02-28T09:02:08;13.90;;;6.40;;
75246;SDS011;63844;50.042;19.224;2023-02-28T09:04:36;12.50;;;5.50;;
75246;SDS011;63844;50.042;19.224;2023-02-28T09:07:02;16.70;;;7.80;;
75246;SDS011;63844;50.042;19.224;2023-02-28T09:09:29;10.90;;;4.30;;
75246;SDS011;63844;50.042;19.224;2023-02-28T09:11:56;8.00;;;3.90;;
75246;SDS011;63844;50.042;19.224;2023-02-28T09:14:23;12.50;;;5.80;;
75246;SDS011;63844;50.042;19.224;2023-02-28T09:16:49;6.10;;;2.80;;
75246;SDS011;63844;50.042;19.224;2023-02-28T09:19:16;14.00;;;6.20;;
75246;SDS011;63844;50.042;19.224;2023-02-28T09:21:42;8.10;;;4.10;;
75246;SDS011;63844;50.042;19.224;2023-02-28T09:24:09;13.60;;;6.90;;
75246;SDS011;63844;50.042;19.224;2023-02-28T09:26:37;13.20;;;6.10;;
75246;SDS011;63844;50.042;19.224;2023-02-28T09:29:04;12.80;;;5.40;;
75246;SDS011;63844;50.042;19.224;2023-02-28T09:31:31;9.20;;;3.90;;
75246;SDS011;63844;50.042;19.224;2023-02-28T09:33:57;10.70;;;4.50;;
75246;SDS011;63844;50.042;19.224;2023-02-28T09:36:26;9.40;;;4.70;;
75246;SDS011;63844;50.042;19.224;2023-02-28T09:38:54;8.30;;;4.50;;
75246;SDS011;63844;50.042;19.224;2023-02-28T09:41:24;10.40;;;3.50;;
75246;SDS011;63844;50.042;19.224;2023-02-28T09:43:58;10.90;;;5.70;;
75246;SDS011;63844;50.042;19.224;2023-02-28T09:49:07;13.70;;;6.30;;
75246;SDS011;63844;50.042;19.224;2023-02-28T09:51:43;8.70;;;4.20;;
75246;SDS011;63844;50.042;19.224;2023-02-28T09:54:21;10.60;;;3.80;;
75246;SDS011;63844;50.042;19.224;2023-02-28T09:56:50;18.60;;;8.00;;
75246;SDS011;63844;50.042;19.224;2023-02-28T09:59:57;13.90;;;7.00;;
75246;SDS011;63844;50.042;19.224;2023-02-28T10:05:15;18.90;;;7.10;;
75246;SDS011;63844;50.042;19.224;2023-02-28T10:10:29;15.00;;;6.90;;
75246;SDS011;63844;50.042;19.224;2023-02-28T10:13:15;14.50;;;6.60;;
75246;SDS011;63844;50.042;19.224;2023-02-28T10:15:47;11.80;;;4.90;;
75246;SDS011;63844;50.042;19.224;2023-02-28T10:18:21;13.50;;;6.20;;
75246;SDS011;63844;50.042;19.224;2023-02-28T10:20:51;13.40;;;6.90;;
75246;SDS011;63844;50.042;19.224;2023-02-28T10:23:28;7.80;;;3.50;;
75246;SDS011;63844;50.042;19.224;2023-02-28T10:26:05;13.60;;;5.70;;
75246;SDS011;63844;50.042;19.224;2023-02-28T10:28:38;14.20;;;5.20;;
75246;SDS011;63844;50.042;19.224;2023-02-28T10:31:08;13.60;;;6.70;;
75246;SDS011;63844;50.042;19.224;2023-02-28T10:33:40;8.50;;;4.30;;
75246;SDS011;63844;50.042;19.224;2023-02-28T10:36:08;7.50;;;3.40;;
75246;SDS011;63844;50.042;19.224;2023-02-28T10:38:40;11.40;;;6.30;;
75246;SDS011;63844;50.042;19.224;2023-02-28T10:43:39;13.60;;;6.40;;
75246;SDS011;63844;50.042;19.224;2023-02-28T10:48:45;4.70;;;2.40;;
75246;SDS011;63844;50.042;19.224;2023-02-28T10:51:23;12.00;;;6.00;;
75246;SDS011;63844;50.042;19.224;2023-02-28T10:53:50;11.20;;;5.70;;
75246;SDS011;63844;50.042;19.224;2023-02-28T10:56:22;9.60;;;5.20;;
75246;SDS011;63844;50.042;19.224;2023-02-28T10:59:01;11.40;;;4.90;;
75246;SDS011;63844;50.042;19.224;2023-02-28T11:03:56;9.80;;;4.30;;
75246;SDS011;63844;50.042;19.224;2023-02-28T11:06:29;6.90;;;3.00;;
75246;SDS011;63844;50.042;19.224;2023-02-28T11:11:29;8.50;;;4.10;;
75246;SDS011;63844;50.042;19.224;2023-02-28T11:14:07;2.00;;;1.10;;
75246;SDS011;63844;50.042;19.224;2023-02-28T11:16:46;4.80;;;2.60;;
75246;SDS011;63844;50.042;19.224;2023-02-28T11:19:19;9.70;;;4.80;;
75246;SDS011;63844;50.042;19.224;2023-02-28T11:21:54;8.30;;;3.90;;
75246;SDS011;63844;50.042;19.224;2023-02-28T11:24:25;7.00;;;3.10;;
75246;SDS011;63844;50.042;19.224;2023-02-28T11:26:58;8.30;;;3.90;;
75246;SDS011;63844;50.042;19.224;2023-02-28T11:29:26;6.20;;;3.30;;
75246;SDS011;63844;50.042;19.224;2023-02-28T11:32:05;5.20;;;2.00;;
75246;SDS011;63844;50.042;19.224;2023-02-28T11:34:42;3.40;;;1.50;;
75246;SDS011;63844;50.042;19.224;2023-02-28T11:37:12;3.00;;;1.20;;
75246;SDS011;63844;50.042;19.224;2023-02-28T11:39:44;11.10;;;4.80;;
75246;SDS011;63844;50.042;19.224;2023-02-28T11:44:57;5.70;;;3.10;;
75246;SDS011;63844;50.042;19.224;2023-02-28T11:53:14;6.70;;;3.00;;
75246;SDS011;63844;50.042;19.224;2023-02-28T11:55:49;7.80;;;3.00;;
75246;SDS011;63844;50.042;19.224;2023-02-28T12:01:13;9.30;;;3.90;;
75246;SDS011;63844;50.042;19.224;2023-02-28T12:09:45;5.70;;;2.90;;
75246;SDS011;63844;50.042;19.224;2023-02-28T12:12:40;7.60;;;3.10;;
75246;SDS011;63844;50.042;19.224;2023-02-28T12:15:24;6.20;;;3.00;;
75246;SDS011;63844;50.042;19.224;2023-02-28T12:18:13;6.50;;;3.20;;
75246;SDS011;63844;50.042;19.224;2023-02-28T12:26:45;9.90;;;5.60;;
75246;SDS011;63844;50.042;19.224;2023-02-28T12:29:30;8.20;;;3.50;;
75246;SDS011;63844;50.042;19.224;2023-02-28T12:34:55;7.00;;;3.00;;
75246;SDS011;63844;50.042;19.224;2023-02-28T12:37:33;6.90;;;2.90;;
75246;SDS011;63844;50.042;19.224;2023-02-28T12:40:13;8.10;;;2.40;;
75246;SDS011;63844;50.042;19.224;2023-02-28T12:42:46;7.90;;;4.40;;
75246;SDS011;63844;50.042;19.224;2023-02-28T12:45:38;11.40;;;5.60;;
75246;SDS011;63844;50.042;19.224;2023-02-28T12:48:09;8.10;;;4.00;;
75246;SDS011;63844;50.042;19.224;2023-02-28T12:50:40;7.00;;;4.00;;
75246;SDS011;63844;50.042;19.224;2023-02-28T12:53:21;7.60;;;4.00;;
75246;SDS011;63844;50.042;19.224;2023-02-28T12:56:07;9.70;;;4.60;;
75246;SDS011;63844;50.042;19.224;2023-02-28T12:58:43;7.70;;;3.50;;
75246;SDS011;63844;50.042;19.224;2023-02-28T13:01:24;7.50;;;3.40;;
75246;SDS011;63844;50.042;19.224;2023-02-28T13:07:30;8.30;;;4.70;;
75246;SDS011;63844;50.042;19.224;2023-02-28T13:10:18;6.30;;;3.00;;
75246;SDS011;63844;50.042;19.224;2023-02-28T13:12:49;5.70;;;2.80;;
75246;SDS011;63844;50.042;19.224;2023-02-28T13:15:35;7.90;;;3.80;;
75246;SDS011;63844;50.042;19.224;2023-02-28T13:18:20;7.60;;;4.40;;
75246;SDS011;63844;50.042;19.224;2023-02-28T13:20:56;6.40;;;4.10;;
75246;SDS011;63844;50.042;19.224;2023-02-28T13:26:05;7.60;;;3.00;;
75246;SDS011;63844;50.042;19.224;2023-02-28T13:31:17;8.40;;;4.20;;
75246;SDS011;63844;50.042;19.224;2023-02-28T13:38:42;8.30;;;4.20;;
75246;SDS011;63844;50.042;19.224;2023-02-28T13:51:50;8.20;;;4.50;;
75246;SDS011;63844;50.042;19.224;2023-02-28T13:57:25;7.20;;;3.90;;
75246;SDS011;63844;50.042;19.224;2023-02-28T14:05:39;10.00;;;6.10;;
75246;SDS011;63844;50.042;19.224;2023-02-28T14:08:16;7.50;;;4.30;;
75246;SDS011;63844;50.042;19.224;2023-02-28T14:10:48;11.40;;;7.40;;
75246;SDS011;63844;50.042;19.224;2023-02-28T14:16:11;7.70;;;4.20;;
75246;SDS011;63844;50.042;19.224;2023-02-28T14:18:41;8.30;;;5.20;;
75246;SDS011;63844;50.042;19.224;2023-02-28T14:21:19;6.80;;;4.10;;
75246;SDS011;63844;50.042;19.224;2023-02-28T14:24:00;10.10;;;6.30;;
75246;SDS011;63844;50.042;19.224;2023-02-28T14:35:25;9.60;;;5.30;;
75246;SDS011;63844;50.042;19.224;2023-02-28T14:38:06;10.70;;;5.80;;
75246;SDS011;63844;50.042;19.224;2023-02-28T14:40:40;11.40;;;6.00;;
75246;SDS011;63844;50.042;19.224;2023-02-28T14:43:18;7.40;;;4.40;;
75246;SDS011;63844;50.042;19.224;2023-02-28T14:45:51;11.40;;;5.40;;
75246;SDS011;63844;50.042;19.224;2023-02-28T14:48:22;10.20;;;4.80;;
75246;SDS011;63844;50.042;19.224;2023-02-28T14:50:51;11.00;;;6.00;;
75246;SDS011;63844;50.042;19.224;2023-02-28T14:53:21;11.30;;;6.10;;
75246;SDS011;63844;50.042;19.224;2023-02-28T14:55:51;12.60;;;6.30;;
75246;SDS011;63844;50.042;19.224;2023-02-28T14:58:29;9.30;;;4.40;;
75246;SDS011;63844;50.042;19.224;2023-02-28T15:00:58;20.50;;;10.10;;
75246;SDS011;63844;50.042;19.224;2023-02-28T15:03:31;8.20;;;3.40;;
75246;SDS011;63844;50.042;19.224;2023-02-28T15:05:59;8.10;;;4.40;;
75246;SDS011;63844;50.042;19.224;2023-02-28T15:08:28;8.00;;;3.80;;
75246;SDS011;63844;50.042;19.224;2023-02-28T15:13:42;9.00;;;5.70;;
75246;SDS011;63844;50.042;19.224;2023-02-28T15:16:22;16.70;;;8.80;;
75246;SDS011;63844;50.042;19.224;2023-02-28T15:19:01;8.50;;;5.20;;
75246;SDS011;63844;50.042;19.224;2023-02-28T15:21:32;8.50;;;4.70;;
75246;SDS011;63844;50.042;19.224;2023-02-28T15:24:06;11.30;;;5.60;;
75246;SDS011;63844;50.042;19.224;2023-02-28T15:26:41;11.00;;;5.70;;
75246;SDS011;63844;50.042;19.224;2023-02-28T15:29:17;10.20;;;5.70;;
75246;SDS011;63844;50.042;19.224;2023-02-28T15:31:51;11.90;;;5.40;;
75246;SDS011;63844;50.042;19.224;2023-02-28T15:40:14;11.70;;;5.10;;
75246;SDS011;63844;50.042;19.224;2023-02-28T15:43:03;9.00;;;4.70;;
75246;SDS011;63844;50.042;19.224;2023-02-28T15:45:36;10.70;;;5.50;;
75246;SDS011;63844;50.042;19.224;2023-02-28T15:53:39;15.10;;;5.10;;
75246;SDS011;63844;50.042;19.224;2023-02-28T15:56:25;11.80;;;5.50;;
75246;SDS011;63844;50.042;19.224;2023-02-28T15:58:56;10.80;;;5.40;;
75246;SDS011;63844;50.042;19.224;2023-02-28T16:01:28;8.20;;;4.00;;
75246;SDS011;63844;50.042;19.224;2023-02-28T16:04:01;10.00;;;5.50;;
75246;SDS011;63844;50.042;19.224;2023-02-28T16:06:36;7.30;;;4.00;;
75246;SDS011;63844;50.042;19.224;2023-02-28T16:09:08;12.30;;;5.70;;
75246;SDS011;63844;50.042;19.224;2023-02-28T16:11:41;13.20;;;6.10;;
75246;SDS011;63844;50.042;19.224;2023-02-28T16:14:18;12.60;;;5.60;;
75246;SDS011;63844;50.042;19.224;2023-02-28T16:16:50;8.80;;;4.20;;
75246;SDS011;63844;50.042;19.224;2023-02-28T16:19:19;12.50;;;5.70;;
75246;SDS011;63844;50.042;19.224;2023-02-28T16:21:47;14.10;;;6.30;;
75246;SDS011;63844;50.042;19.224;2023-02-28T16:24:14;12.00;;;5.90;;
75246;SDS011;63844;50.042;19.224;2023-02-28T16:26:41;12.60;;;5.80;;
75246;SDS011;63844;50.042;19.224;2023-02-28T16:29:13;8.00;;;4.50;;
75246;SDS011;63844;50.042;19.224;2023-02-28T16:31:44;14.20;;;5.20;;
75246;SDS011;63844;50.042;19.224;2023-02-28T16:34:10;15.20;;;6.30;;
75246;SDS011;63844;50.042;19.224;2023-02-28T16:36:37;15.60;;;6.30;;
75246;SDS011;63844;50.042;19.224;2023-02-28T16:39:03;18.90;;;8.10;;
75246;SDS011;63844;50.042;19.224;2023-02-28T16:41:31;17.50;;;7.20;;
75246;SDS011;63844;50.042;19.224;2023-02-28T16:43:59;22.90;;;9.00;;
75246;SDS011;63844;50.042;19.224;2023-02-28T16:46:27;23.70;;;9.20;;
75246;SDS011;63844;50.042;19.224;2023-02-28T16:49:02;24.70;;;8.50;;
75246;SDS011;63844;50.042;19.224;2023-02-28T16:51:28;25.40;;;9.00;;
75246;SDS011;63844;50.042;19.224;2023-02-28T16:53:55;26.40;;;9.20;;
75246;SDS011;63844;50.042;19.224;2023-02-28T16:56:22;25.70;;;9.30;;
75246;SDS011;63844;50.042;19.224;2023-02-28T16:58:50;22.50;;;9.40;;
75246;SDS011;63844;50.042;19.224;2023-02-28T17:01:18;22.80;;;8.00;;
75246;SDS011;63844;50.042;19.224;2023-02-28T17:03:48;24.30;;;9.20;;
75246;SDS011;63844;50.042;19.224;2023-02-28T17:06:17;20.50;;;7.90;;